sensor_id;sensor_type;location;lat;lon;timestamp;temperature;humidity
21787;DHT22;11055;50.870;4.316;2024-03-02T00:01:04;7.80;99.90
21787;DHT22;11055;50.870;4.316;2024-03-02T00:03:30;7.70;99.90
21787;DHT22;11055;50.870;4.316;2024-03-02T00:05:56;7.80;99.90
21787;DHT22;11055;50.870;4.316;2024-03-02T00:08:25;7.70;99.90
21787;DHT22;11055;50.870;4.316;2024-03-02T00:10:52;7.70;99.90
21787;DHT22;11055;50.870;4.316;2024-03-02T00:13:20;7.70;99.90
21787;DHT22;11055;50.870;4.316;2024-03-02T00:15:54;7.70;99.90
21787;DHT22;11055;50.870;4.316;2024-03-02T00:18:30;7.60;99.90
21787;DHT22;11055;50.870;4.316;2024-03-02T00:20:57;7.70;99.90
21787;DHT22;11055;50.870;4.316;2024-03-02T00:23:23;7.60;99.90
21787;DHT22;11055;50.870;4.316;2024-03-02T00:25:53;7.70;99.90
21787;DHT22;11055;50.870;4.316;2024-03-02T00:28:31;7.70;99.90
21787;DHT22;11055;50.870;4.316;2024-03-02T00:31:07;7.60;99.90
21787;DHT22;11055;50.870;4.316;2024-03-02T00:33:46;7.60;99.90
21787;DHT22;11055;50.870;4.316;2024-03-02T00:36:13;7.60;99.90
21787;DHT22;11055;50.870;4.316;2024-03-02T00:38:50;7.50;99.90
21787;DHT22;11055;50.870;4.316;2024-03-02T00:41:21;7.50;99.90
21787;DHT22;11055;50.870;4.316;2024-03-02T00:44:01;7.60;99.90
21787;DHT22;11055;50.870;4.316;2024-03-02T00:46:33;7.60;99.90
21787;DHT22;11055;50.870;4.316;2024-03-02T00:49:04;7.60;99.90
21787;DHT22;11055;50.870;4.316;2024-03-02T00:51:32;7.70;99.90
21787;DHT22;11055;50.870;4.316;2024-03-02T00:54:03;7.70;99.90
21787;DHT22;11055;50.870;4.316;2024-03-02T00:56:30;7.70;99.90
21787;DHT22;11055;50.870;4.316;2024-03-02T00:58:56;7.70;99.90
21787;DHT22;11055;50.870;4.316;2024-03-02T01:01:22;7.70;99.90
21787;DHT22;11055;50.870;4.316;2024-03-02T01:03:48;7.60;99.90
21787;DHT22;11055;50.870;4.316;2024-03-02T01:06:17;7.50;99.90
21787;DHT22;11055;50.870;4.316;2024-03-02T01:08:43;7.60;99.90
21787;DHT22;11055;50.870;4.316;2024-03-02T01:11:09;7.50;99.90
21787;DHT22;11055;50.870;4.316;2024-03-02T01:13:35;7.50;99.90
21787;DHT22;11055;50.870;4.316;2024-03-02T01:16:00;7.60;99.90
21787;DHT22;11055;50.870;4.316;2024-03-02T01:18:27;7.60;99.90
21787;DHT22;11055;50.870;4.316;2024-03-02T01:20:52;7.70;99.90
21787;DHT22;11055;50.870;4.316;2024-03-02T01:23:21;7.70;99.90
21787;DHT22;11055;50.870;4.316;2024-03-02T01:25:47;7.60;99.90
21787;DHT22;11055;50.870;4.316;2024-03-02T01:28:13;7.60;99.90
21787;DHT22;11055;50.870;4.316;2024-03-02T01:30:39;7.70;99.90
21787;DHT22;11055;50.870;4.316;2024-03-02T01:33:05;7.70;99.90
21787;DHT22;11055;50.870;4.316;2024-03-02T01:35:32;7.70;99.90
21787;DHT22;11055;50.870;4.316;2024-03-02T01:37:58;7.60;99.90
21787;DHT22;11055;50.870;4.316;2024-03-02T01:40:24;7.70;99.90
21787;DHT22;11055;50.870;4.316;2024-03-02T01:42:55;7.70;99.90
21787;DHT22;11055;50.870;4.316;2024-03-02T01:45:24;7.70;99.90
21787;DHT22;11055;50.870;4.316;2024-03-02T01:47:50;7.70;99.90
21787;DHT22;11055;50.870;4.316;2024-03-02T01:50:16;7.60;99.90
21787;DHT22;11055;50.870;4.316;2024-03-02T01:52:49;7.70;99.90
21787;DHT22;11055;50.870;4.316;2024-03-02T01:55:15;7.70;99.90
21787;DHT22;11055;50.870;4.316;2024-03-02T01:57:40;7.70;99.90
21787;DHT22;11055;50.870;4.316;2024-03-02T02:00:07;7.70;99.90
21787;DHT22;11055;50.870;4.316;2024-03-02T02:02:32;7.70;99.90
21787;DHT22;11055;50.870;4.316;2024-03-02T02:04:58;7.60;99.90
21787;DHT22;11055;50.870;4.316;2024-03-02T02:07:24;7.50;99.90
21787;DHT22;11055;50.870;4.316;2024-03-02T02:09:49;7.60;99.90
21787;DHT22;11055;50.870;4.316;2024-03-02T02:12:15;7.60;99.90
21787;DHT22;11055;50.870;4.316;2024-03-02T02:14:47;7.70;99.90
21787;DHT22;11055;50.870;4.316;2024-03-02T02:17:14;7.80;99.90
21787;DHT22;11055;50.870;4.316;2024-03-02T02:19:41;7.80;99.90
21787;DHT22;11055;50.870;4.316;2024-03-02T02:22:06;7.90;99.90
21787;DHT22;11055;50.870;4.316;2024-03-02T02:24:32;7.90;99.90
21787;DHT22;11055;50.870;4.316;2024-03-02T02:26:58;7.80;99.90
21787;DHT22;11055;50.870;4.316;2024-03-02T02:29:23;7.80;99.90
21787;DHT22;11055;50.870;4.316;2024-03-02T02:31:49;7.80;99.90
21787;DHT22;11055;50.870;4.316;2024-03-02T02:34:15;7.70;99.90
21787;DHT22;11055;50.870;4.316;2024-03-02T02:36:41;7.60;99.90
21787;DHT22;11055;50.870;4.316;2024-03-02T02:39:12;7.70;99.90
21787;DHT22;11055;50.870;4.316;2024-03-02T02:41:39;7.70;99.90
21787;DHT22;11055;50.870;4.316;2024-03-02T02:44:05;7.60;99.90
21787;DHT22;11055;50.870;4.316;2024-03-02T02:46:30;7.60;99.90
21787;DHT22;11055;50.870;4.316;2024-03-02T02:48:56;7.70;99.90
21787;DHT22;11055;50.870;4.316;2024-03-02T02:51:22;7.70;99.90
21787;DHT22;11055;50.870;4.316;2024-03-02T02:53:47;7.70;99.90
21787;DHT22;11055;50.870;4.316;2024-03-02T02:56:13;7.60;99.90
21787;DHT22;11055;50.870;4.316;2024-03-02T02:58:40;7.70;99.90
21787;DHT22;11055;50.870;4.316;2024-03-02T03:01:06;7.70;99.90
21787;DHT22;11055;50.870;4.316;2024-03-02T03:03:33;7.70;99.90
21787;DHT22;11055;50.870;4.316;2024-03-02T03:05:59;7.70;99.90
21787;DHT22;11055;50.870;4.316;2024-03-02T03:08:24;7.70;99.90
21787;DHT22;11055;50.870;4.316;2024-03-02T03:10:50;7.70;99.90
21787;DHT22;11055;50.870;4.316;2024-03-02T03:13:16;7.60;99.90
21787;DHT22;11055;50.870;4.316;2024-03-02T03:15:41;7.60;99.90
21787;DHT22;11055;50.870;4.316;2024-03-02T03:18:07;7.50;99.90
21787;DHT22;11055;50.870;4.316;2024-03-02T03:20:33;7.50;99.90
21787;DHT22;11055;50.870;4.316;2024-03-02T03:22:59;7.50;99.90
21787;DHT22;11055;50.870;4.316;2024-03-02T03:25:25;7.40;99.90
21787;DHT22;11055;50.870;4.316;2024-03-02T03:27:51;7.30;99.90
21787;DHT22;11055;50.870;4.316;2024-03-02T03:30:19;7.30;99.90
21787;DHT22;11055;50.870;4.316;2024-03-02T03:32:45;7.30;99.90
21787;DHT22;11055;50.870;4.316;2024-03-02T03:35:11;7.20;99.90
21787;DHT22;11055;50.870;4.316;2024-03-02T03:37:38;7.20;99.90
21787;DHT22;11055;50.870;4.316;2024-03-02T03:40:04;7.30;99.90
21787;DHT22;11055;50.870;4.316;2024-03-02T03:42:38;7.30;99.90
21787;DHT22;11055;50.870;4.316;2024-03-02T03:45:05;7.40;99.90
21787;DHT22;11055;50.870;4.316;2024-03-02T03:47:32;7.50;99.90
21787;DHT22;11055;50.870;4.316;2024-03-02T03:49:57;7.50;99.90
21787;DHT22;11055;50.870;4.316;2024-03-02T03:52:23;7.50;99.90
21787;DHT22;11055;50.870;4.316;2024-03-02T03:54:49;7.50;99.90
21787;DHT22;11055;50.870;4.316;2024-03-02T03:57:15;7.50;99.90
21787;DHT22;11055;50.870;4.316;2024-03-02T03:59:41;7.50;99.90
21787;DHT22;11055;50.870;4.316;2024-03-02T04:02:08;7.50;99.90
21787;DHT22;11055;50.870;4.316;2024-03-02T04:04:34;7.50;99.90
21787;DHT22;11055;50.870;4.316;2024-03-02T04:07:00;7.40;99.90
21787;DHT22;11055;50.870;4.316;2024-03-02T04:09:26;7.50;99.90
21787;DHT22;11055;50.870;4.316;2024-03-02T04:11:51;7.50;99.90
21787;DHT22;11055;50.870;4.316;2024-03-02T04:14:17;7.50;99.90
21787;DHT22;11055;50.870;4.316;2024-03-02T04:16:43;7.40;99.90
21787;DHT22;11055;50.870;4.316;2024-03-02T04:19:08;7.40;99.90
21787;DHT22;11055;50.870;4.316;2024-03-02T04:21:34;7.50;99.90
21787;DHT22;11055;50.870;4.316;2024-03-02T04:24:00;7.40;99.90
21787;DHT22;11055;50.870;4.316;2024-03-02T04:26:26;7.50;99.90
21787;DHT22;11055;50.870;4.316;2024-03-02T04:28:52;7.50;99.90
21787;DHT22;11055;50.870;4.316;2024-03-02T04:31:18;7.50;99.90
21787;DHT22;11055;50.870;4.316;2024-03-02T04:33:44;7.60;99.90
21787;DHT22;11055;50.870;4.316;2024-03-02T04:36:09;7.60;99.90
21787;DHT22;11055;50.870;4.316;2024-03-02T04:38:35;7.60;99.90
21787;DHT22;11055;50.870;4.316;2024-03-02T04:41:01;7.60;99.90
21787;DHT22;11055;50.870;4.316;2024-03-02T04:43:27;7.50;99.90
21787;DHT22;11055;50.870;4.316;2024-03-02T04:45:52;7.50;99.90
21787;DHT22;11055;50.870;4.316;2024-03-02T04:48:18;7.50;99.90
21787;DHT22;11055;50.870;4.316;2024-03-02T04:50:44;7.50;99.90
21787;DHT22;11055;50.870;4.316;2024-03-02T04:53:10;7.40;99.90
21787;DHT22;11055;50.870;4.316;2024-03-02T04:55:36;7.30;99.90
21787;DHT22;11055;50.870;4.316;2024-03-02T04:58:04;7.40;99.90
21787;DHT22;11055;50.870;4.316;2024-03-02T05:00:30;7.30;99.90
21787;DHT22;11055;50.870;4.316;2024-03-02T05:02:56;7.30;99.90
21787;DHT22;11055;50.870;4.316;2024-03-02T05:05:22;7.30;99.90
21787;DHT22;11055;50.870;4.316;2024-03-02T05:07:47;7.20;99.90
21787;DHT22;11055;50.870;4.316;2024-03-02T05:10:13;7.20;99.90
21787;DHT22;11055;50.870;4.316;2024-03-02T05:12:39;7.20;99.90
21787;DHT22;11055;50.870;4.316;2024-03-02T05:15:08;7.10;99.90
21787;DHT22;11055;50.870;4.316;2024-03-02T05:17:35;7.10;99.90
21787;DHT22;11055;50.870;4.316;2024-03-02T05:20:02;7.10;99.90
21787;DHT22;11055;50.870;4.316;2024-03-02T05:22:27;7.10;99.90
21787;DHT22;11055;50.870;4.316;2024-03-02T05:24:54;7.10;99.90
21787;DHT22;11055;50.870;4.316;2024-03-02T05:27:19;7.00;99.90
21787;DHT22;11055;50.870;4.316;2024-03-02T05:29:45;7.10;99.90
21787;DHT22;11055;50.870;4.316;2024-03-02T05:32:11;7.00;99.90
21787;DHT22;11055;50.870;4.316;2024-03-02T05:34:36;7.00;99.90
21787;DHT22;11055;50.870;4.316;2024-03-02T05:37:02;7.00;99.90
21787;DHT22;11055;50.870;4.316;2024-03-02T05:39:27;6.90;99.90
21787;DHT22;11055;50.870;4.316;2024-03-02T05:41:53;6.90;99.90
21787;DHT22;11055;50.870;4.316;2024-03-02T05:44:19;6.90;99.90
21787;DHT22;11055;50.870;4.316;2024-03-02T05:46:45;6.90;99.90
21787;DHT22;11055;50.870;4.316;2024-03-02T05:49:11;7.00;99.90
21787;DHT22;11055;50.870;4.316;2024-03-02T05:51:36;6.90;99.90
21787;DHT22;11055;50.870;4.316;2024-03-02T05:54:02;6.80;99.90
21787;DHT22;11055;50.870;4.316;2024-03-02T05:56:28;6.80;99.90
21787;DHT22;11055;50.870;4.316;2024-03-02T05:58:54;6.90;99.90
21787;DHT22;11055;50.870;4.316;2024-03-02T06:01:46;7.00;99.90
21787;DHT22;11055;50.870;4.316;2024-03-02T06:04:13;6.90;99.90
21787;DHT22;11055;50.870;4.316;2024-03-02T06:06:42;6.90;99.90
21787;DHT22;11055;50.870;4.316;2024-03-02T06:09:08;6.80;99.90
21787;DHT22;11055;50.870;4.316;2024-03-02T06:11:35;6.80;99.90
21787;DHT22;11055;50.870;4.316;2024-03-02T06:14:01;6.80;99.90
21787;DHT22;11055;50.870;4.316;2024-03-02T06:16:26;6.80;99.90
21787;DHT22;11055;50.870;4.316;2024-03-02T06:18:52;6.80;99.90
21787;DHT22;11055;50.870;4.316;2024-03-02T06:21:19;6.70;99.90
21787;DHT22;11055;50.870;4.316;2024-03-02T06:23:45;6.70;99.90
21787;DHT22;11055;50.870;4.316;2024-03-02T06:26:11;6.60;99.90
21787;DHT22;11055;50.870;4.316;2024-03-02T06:28:37;6.60;99.90
21787;DHT22;11055;50.870;4.316;2024-03-02T06:31:04;6.60;99.90
21787;DHT22;11055;50.870;4.316;2024-03-02T06:33:29;6.60;99.90
21787;DHT22;11055;50.870;4.316;2024-03-02T06:35:55;6.60;99.90
21787;DHT22;11055;50.870;4.316;2024-03-02T06:38:22;6.60;99.90
21787;DHT22;11055;50.870;4.316;2024-03-02T06:40:47;6.60;99.90
21787;DHT22;11055;50.870;4.316;2024-03-02T06:43:13;6.60;99.90
21787;DHT22;11055;50.870;4.316;2024-03-02T06:45:39;6.60;99.90
21787;DHT22;11055;50.870;4.316;2024-03-02T06:48:05;6.60;99.90
21787;DHT22;11055;50.870;4.316;2024-03-02T06:50:30;6.60;99.90
21787;DHT22;11055;50.870;4.316;2024-03-02T06:52:56;6.60;99.90
21787;DHT22;11055;50.870;4.316;2024-03-02T06:55:22;6.60;99.90
21787;DHT22;11055;50.870;4.316;2024-03-02T06:57:50;6.60;99.90
21787;DHT22;11055;50.870;4.316;2024-03-02T07:00:16;6.60;99.90
21787;DHT22;11055;50.870;4.316;2024-03-02T07:02:43;6.60;99.90
21787;DHT22;11055;50.870;4.316;2024-03-02T07:05:10;6.60;99.90
21787;DHT22;11055;50.870;4.316;2024-03-02T07:07:35;6.70;99.90
21787;DHT22;11055;50.870;4.316;2024-03-02T07:10:05;6.70;99.90
21787;DHT22;11055;50.870;4.316;2024-03-02T07:12:33;6.70;99.90
21787;DHT22;11055;50.870;4.316;2024-03-02T07:15:02;6.70;99.90
21787;DHT22;11055;50.870;4.316;2024-03-02T07:17:28;6.70;99.90
21787;DHT22;11055;50.870;4.316;2024-03-02T07:19:54;6.70;99.90
21787;DHT22;11055;50.870;4.316;2024-03-02T07:22:19;6.80;99.90
21787;DHT22;11055;50.870;4.316;2024-03-02T07:24:45;6.70;99.90
21787;DHT22;11055;50.870;4.316;2024-03-02T07:27:15;6.80;99.90
21787;DHT22;11055;50.870;4.316;2024-03-02T07:29:41;6.90;99.90
21787;DHT22;11055;50.870;4.316;2024-03-02T07:32:07;6.80;99.90
21787;DHT22;11055;50.870;4.316;2024-03-02T07:34:33;6.90;99.90
21787;DHT22;11055;50.870;4.316;2024-03-02T07:36:59;6.90;99.90
21787;DHT22;11055;50.870;4.316;2024-03-02T07:39:25;6.80;99.90
21787;DHT22;11055;50.870;4.316;2024-03-02T07:41:51;6.90;99.90
21787;DHT22;11055;50.870;4.316;2024-03-02T07:44:16;6.90;99.90
21787;DHT22;11055;50.870;4.316;2024-03-02T07:46:45;6.90;99.90
21787;DHT22;11055;50.870;4.316;2024-03-02T07:49:12;6.90;99.90
21787;DHT22;11055;50.870;4.316;2024-03-02T07:51:41;6.90;99.90
21787;DHT22;11055;50.870;4.316;2024-03-02T07:54:07;7.00;99.90
21787;DHT22;11055;50.870;4.316;2024-03-02T07:56:33;7.00;99.90
21787;DHT22;11055;50.870;4.316;2024-03-02T07:58:59;7.00;99.90
21787;DHT22;11055;50.870;4.316;2024-03-02T08:01:27;7.10;99.90
21787;DHT22;11055;50.870;4.316;2024-03-02T08:03:55;7.20;99.90
21787;DHT22;11055;50.870;4.316;2024-03-02T08:06:22;7.20;99.90
21787;DHT22;11055;50.870;4.316;2024-03-02T08:08:48;7.30;99.90
21787;DHT22;11055;50.870;4.316;2024-03-02T08:11:14;7.30;99.90
21787;DHT22;11055;50.870;4.316;2024-03-02T08:13:39;7.40;99.90
21787;DHT22;11055;50.870;4.316;2024-03-02T08:16:05;7.50;99.90
21787;DHT22;11055;50.870;4.316;2024-03-02T08:18:34;7.50;99.90
21787;DHT22;11055;50.870;4.316;2024-03-02T08:21:00;7.50;99.90
21787;DHT22;11055;50.870;4.316;2024-03-02T08:23:26;7.60;99.90
21787;DHT22;11055;50.870;4.316;2024-03-02T08:25:52;7.50;99.90
21787;DHT22;11055;50.870;4.316;2024-03-02T08:28:17;7.50;99.90
21787;DHT22;11055;50.870;4.316;2024-03-02T08:30:43;7.60;99.90
21787;DHT22;11055;50.870;4.316;2024-03-02T08:33:09;7.70;99.90
21787;DHT22;11055;50.870;4.316;2024-03-02T08:35:34;7.80;99.90
21787;DHT22;11055;50.870;4.316;2024-03-02T08:38:04;7.80;99.90
21787;DHT22;11055;50.870;4.316;2024-03-02T08:40:30;7.90;99.90
21787;DHT22;11055;50.870;4.316;2024-03-02T08:42:56;7.80;99.90
21787;DHT22;11055;50.870;4.316;2024-03-02T08:45:22;7.90;99.90
21787;DHT22;11055;50.870;4.316;2024-03-02T08:47:48;8.00;99.90
21787;DHT22;11055;50.870;4.316;2024-03-02T08:50:14;8.10;99.90
21787;DHT22;11055;50.870;4.316;2024-03-02T08:52:39;8.10;99.90
21787;DHT22;11055;50.870;4.316;2024-03-02T08:55:08;8.10;99.90
21787;DHT22;11055;50.870;4.316;2024-03-02T08:57:35;8.20;99.90
21787;DHT22;11055;50.870;4.316;2024-03-02T09:00:00;8.30;99.90
21787;DHT22;11055;50.870;4.316;2024-03-02T09:02:26;8.30;99.90
21787;DHT22;11055;50.870;4.316;2024-03-02T09:04:52;8.40;99.90
21787;DHT22;11055;50.870;4.316;2024-03-02T09:07:18;8.50;99.90
21787;DHT22;11055;50.870;4.316;2024-03-02T09:09:44;8.60;99.90
21787;DHT22;11055;50.870;4.316;2024-03-02T09:12:09;8.60;99.90
21787;DHT22;11055;50.870;4.316;2024-03-02T09:14:36;8.60;99.90
21787;DHT22;11055;50.870;4.316;2024-03-02T09:17:02;8.60;99.90
21787;DHT22;11055;50.870;4.316;2024-03-02T09:19:29;8.70;99.90
21787;DHT22;11055;50.870;4.316;2024-03-02T09:21:55;8.80;99.90
21787;DHT22;11055;50.870;4.316;2024-03-02T09:24:21;8.90;99.90
21787;DHT22;11055;50.870;4.316;2024-03-02T09:26:47;8.90;99.90
21787;DHT22;11055;50.870;4.316;2024-03-02T09:29:13;9.00;99.90
21787;DHT22;11055;50.870;4.316;2024-03-02T09:31:43;9.10;99.90
21787;DHT22;11055;50.870;4.316;2024-03-02T09:34:09;9.10;99.90
21787;DHT22;11055;50.870;4.316;2024-03-02T09:36:34;9.20;99.90
21787;DHT22;11055;50.870;4.316;2024-03-02T09:39:00;9.20;99.90
21787;DHT22;11055;50.870;4.316;2024-03-02T09:41:26;9.40;99.90
21787;DHT22;11055;50.870;4.316;2024-03-02T09:43:52;9.60;99.90
21787;DHT22;11055;50.870;4.316;2024-03-02T09:46:18;9.60;99.90
21787;DHT22;11055;50.870;4.316;2024-03-02T09:48:45;9.70;99.90
21787;DHT22;11055;50.870;4.316;2024-03-02T09:51:11;9.60;99.90
21787;DHT22;11055;50.870;4.316;2024-03-02T09:53:37;9.60;99.90
21787;DHT22;11055;50.870;4.316;2024-03-02T09:56:03;9.70;99.90
21787;DHT22;11055;50.870;4.316;2024-03-02T09:58:30;10.00;99.90
21787;DHT22;11055;50.870;4.316;2024-03-02T10:00:56;10.00;99.90
21787;DHT22;11055;50.870;4.316;2024-03-02T10:03:26;10.00;99.90
21787;DHT22;11055;50.870;4.316;2024-03-02T10:05:54;10.20;99.90
21787;DHT22;11055;50.870;4.316;2024-03-02T10:08:20;10.20;99.90
21787;DHT22;11055;50.870;4.316;2024-03-02T10:10:46;10.20;99.90
21787;DHT22;11055;50.870;4.316;2024-03-02T10:13:13;10.10;99.90
21787;DHT22;11055;50.870;4.316;2024-03-02T10:15:40;10.30;99.90
21787;DHT22;11055;50.870;4.316;2024-03-02T10:18:10;10.40;99.90
21787;DHT22;11055;50.870;4.316;2024-03-02T10:20:41;10.80;99.90
21787;DHT22;11055;50.870;4.316;2024-03-02T10:23:11;11.00;99.90
21787;DHT22;11055;50.870;4.316;2024-03-02T10:25:37;10.90;99.90
21787;DHT22;11055;50.870;4.316;2024-03-02T10:28:04;11.10;99.90
21787;DHT22;11055;50.870;4.316;2024-03-02T10:30:37;11.10;99.90
21787;DHT22;11055;50.870;4.316;2024-03-02T10:33:03;11.20;99.90
21787;DHT22;11055;50.870;4.316;2024-03-02T10:35:29;11.30;99.90
21787;DHT22;11055;50.870;4.316;2024-03-02T10:37:59;11.30;99.90
21787;DHT22;11055;50.870;4.316;2024-03-02T10:40:29;11.20;99.90
21787;DHT22;11055;50.870;4.316;2024-03-02T10:42:55;11.20;99.90
21787;DHT22;11055;50.870;4.316;2024-03-02T10:45:23;11.20;99.90
21787;DHT22;11055;50.870;4.316;2024-03-02T10:47:49;11.40;99.90
21787;DHT22;11055;50.870;4.316;2024-03-02T10:50:15;11.50;99.90
21787;DHT22;11055;50.870;4.316;2024-03-02T10:52:41;11.30;99.90
21787;DHT22;11055;50.870;4.316;2024-03-02T10:55:11;11.30;99.90
21787;DHT22;11055;50.870;4.316;2024-03-02T10:57:50;11.40;99.90
21787;DHT22;11055;50.870;4.316;2024-03-02T11:00:17;11.50;99.90
21787;DHT22;11055;50.870;4.316;2024-03-02T11:03:11;11.60;99.90
21787;DHT22;11055;50.870;4.316;2024-03-02T11:05:36;11.40;99.90
21787;DHT22;11055;50.870;4.316;2024-03-02T11:08:06;11.30;99.90
21787;DHT22;11055;50.870;4.316;2024-03-02T11:10:40;11.20;99.90
21787;DHT22;11055;50.870;4.316;2024-03-02T11:13:09;11.00;99.90
21787;DHT22;11055;50.870;4.316;2024-03-02T11:15:36;11.10;99.90
21787;DHT22;11055;50.870;4.316;2024-03-02T11:18:04;11.20;99.90
21787;DHT22;11055;50.870;4.316;2024-03-02T11:20:37;11.30;99.90
21787;DHT22;11055;50.870;4.316;2024-03-02T11:23:07;11.40;99.90
21787;DHT22;11055;50.870;4.316;2024-03-02T11:25:34;11.40;99.90
21787;DHT22;11055;50.870;4.316;2024-03-02T11:28:07;11.20;99.90
21787;DHT22;11055;50.870;4.316;2024-03-02T11:33:04;11.10;99.90
21787;DHT22;11055;50.870;4.316;2024-03-02T11:35:37;11.40;99.90
21787;DHT22;11055;50.870;4.316;2024-03-02T11:38:03;11.50;99.90
21787;DHT22;11055;50.870;4.316;2024-03-02T11:40:30;11.50;99.90
21787;DHT22;11055;50.870;4.316;2024-03-02T11:42:57;11.50;99.90
21787;DHT22;11055;50.870;4.316;2024-03-02T11:45:26;11.60;99.90
21787;DHT22;11055;50.870;4.316;2024-03-02T11:47:54;11.70;99.90
21787;DHT22;11055;50.870;4.316;2024-03-02T11:50:49;11.80;99.90
21787;DHT22;11055;50.870;4.316;2024-03-02T11:53:15;11.80;99.90
21787;DHT22;11055;50.870;4.316;2024-03-02T11:55:41;12.00;99.90
21787;DHT22;11055;50.870;4.316;2024-03-02T11:58:11;12.60;99.90
21787;DHT22;11055;50.870;4.316;2024-03-02T12:00:37;13.00;99.90
21787;DHT22;11055;50.870;4.316;2024-03-02T12:03:07;13.30;99.90
21787;DHT22;11055;50.870;4.316;2024-03-02T12:05:33;13.40;99.90
21787;DHT22;11055;50.870;4.316;2024-03-02T12:08:04;13.40;99.90
21787;DHT22;11055;50.870;4.316;2024-03-02T12:10:30;13.10;99.90
21787;DHT22;11055;50.870;4.316;2024-03-02T12:13:01;12.90;99.90
21787;DHT22;11055;50.870;4.316;2024-03-02T12:15:29;12.80;99.90
21787;DHT22;11055;50.870;4.316;2024-03-02T12:17:56;12.70;99.90
21787;DHT22;11055;50.870;4.316;2024-03-02T12:20:26;12.80;99.90
21787;DHT22;11055;50.870;4.316;2024-03-02T12:22:53;12.90;99.90
21787;DHT22;11055;50.870;4.316;2024-03-02T12:25:23;12.70;99.90
21787;DHT22;11055;50.870;4.316;2024-03-02T12:27:51;13.30;99.90
21787;DHT22;11055;50.870;4.316;2024-03-02T12:30:17;14.80;99.90
21787;DHT22;11055;50.870;4.316;2024-03-02T12:32:44;15.40;99.90
21787;DHT22;11055;50.870;4.316;2024-03-02T12:35:11;16.20;99.90
21787;DHT22;11055;50.870;4.316;2024-03-02T12:37:48;18.40;99.90
21787;DHT22;11055;50.870;4.316;2024-03-02T12:40:15;18.70;99.90
21787;DHT22;11055;50.870;4.316;2024-03-02T12:42:43;19.10;98.20
21787;DHT22;11055;50.870;4.316;2024-03-02T12:45:08;18.60;99.00
21787;DHT22;11055;50.870;4.316;2024-03-02T12:47:35;17.60;99.90
21787;DHT22;11055;50.870;4.316;2024-03-02T12:50:01;17.20;99.90
21787;DHT22;11055;50.870;4.316;2024-03-02T12:52:27;16.10;99.90
21787;DHT22;11055;50.870;4.316;2024-03-02T12:54:54;15.30;99.90
21787;DHT22;11055;50.870;4.316;2024-03-02T12:57:27;15.10;99.90
21787;DHT22;11055;50.870;4.316;2024-03-02T13:00:00;15.10;99.90
21787;DHT22;11055;50.870;4.316;2024-03-02T13:02:30;15.30;99.90
21787;DHT22;11055;50.870;4.316;2024-03-02T13:04:57;15.20;99.90
21787;DHT22;11055;50.870;4.316;2024-03-02T13:07:24;15.30;99.90
21787;DHT22;11055;50.870;4.316;2024-03-02T13:09:50;15.10;99.90
21787;DHT22;11055;50.870;4.316;2024-03-02T13:12:17;14.50;99.90
21787;DHT22;11055;50.870;4.316;2024-03-02T13:14:43;14.00;99.90
21787;DHT22;11055;50.870;4.316;2024-03-02T13:17:11;13.90;99.90
21787;DHT22;11055;50.870;4.316;2024-03-02T13:19:53;13.60;99.90
21787;DHT22;11055;50.870;4.316;2024-03-02T13:22:19;13.50;99.90
21787;DHT22;11055;50.870;4.316;2024-03-02T13:24:44;13.40;99.90
21787;DHT22;11055;50.870;4.316;2024-03-02T13:27:10;13.40;99.90
21787;DHT22;11055;50.870;4.316;2024-03-02T13:29:36;13.40;99.90
21787;DHT22;11055;50.870;4.316;2024-03-02T13:32:02;13.30;99.90
21787;DHT22;11055;50.870;4.316;2024-03-02T13:34:28;13.30;99.90
21787;DHT22;11055;50.870;4.316;2024-03-02T13:36:53;13.30;99.90
21787;DHT22;11055;50.870;4.316;2024-03-02T13:39:19;13.30;99.90
21787;DHT22;11055;50.870;4.316;2024-03-02T13:41:45;13.30;99.90
21787;DHT22;11055;50.870;4.316;2024-03-02T13:44:21;13.30;99.90
21787;DHT22;11055;50.870;4.316;2024-03-02T13:46:47;13.40;99.90
21787;DHT22;11055;50.870;4.316;2024-03-02T13:49:14;13.40;99.90
21787;DHT22;11055;50.870;4.316;2024-03-02T13:51:39;13.50;99.90
21787;DHT22;11055;50.870;4.316;2024-03-02T13:54:05;13.40;99.90
21787;DHT22;11055;50.870;4.316;2024-03-02T13:56:31;13.50;99.90
21787;DHT22;11055;50.870;4.316;2024-03-02T13:58:58;13.60;99.90
21787;DHT22;11055;50.870;4.316;2024-03-02T14:01:24;13.40;99.90
21787;DHT22;11055;50.870;4.316;2024-03-02T14:03:50;13.10;99.90
21787;DHT22;11055;50.870;4.316;2024-03-02T14:06:16;13.00;99.90
21787;DHT22;11055;50.870;4.316;2024-03-02T14:08:42;12.90;99.90
21787;DHT22;11055;50.870;4.316;2024-03-02T14:11:10;12.80;99.90
21787;DHT22;11055;50.870;4.316;2024-03-02T14:13:43;12.80;99.90
21787;DHT22;11055;50.870;4.316;2024-03-02T14:16:12;12.80;99.90
21787;DHT22;11055;50.870;4.316;2024-03-02T14:18:38;12.90;99.90
21787;DHT22;11055;50.870;4.316;2024-03-02T14:21:04;12.80;99.90
21787;DHT22;11055;50.870;4.316;2024-03-02T14:23:29;12.60;99.90
21787;DHT22;11055;50.870;4.316;2024-03-02T14:25:55;12.40;99.90
21787;DHT22;11055;50.870;4.316;2024-03-02T14:28:21;12.40;99.90
21787;DHT22;11055;50.870;4.316;2024-03-02T14:30:47;12.40;99.90
21787;DHT22;11055;50.870;4.316;2024-03-02T14:33:13;12.40;99.90
21787;DHT22;11055;50.870;4.316;2024-03-02T14:35:39;12.40;99.90
21787;DHT22;11055;50.870;4.316;2024-03-02T14:38:05;12.50;99.90
21787;DHT22;11055;50.870;4.316;2024-03-02T14:40:30;12.60;99.90
21787;DHT22;11055;50.870;4.316;2024-03-02T14:42:56;12.50;99.90
21787;DHT22;11055;50.870;4.316;2024-03-02T14:45:22;12.50;99.90
21787;DHT22;11055;50.870;4.316;2024-03-02T14:47:49;12.60;99.90
21787;DHT22;11055;50.870;4.316;2024-03-02T14:50:15;12.50;99.90
21787;DHT22;11055;50.870;4.316;2024-03-02T14:52:42;12.50;99.90
21787;DHT22;11055;50.870;4.316;2024-03-02T14:55:07;12.60;99.90
21787;DHT22;11055;50.870;4.316;2024-03-02T14:57:33;12.60;99.90
21787;DHT22;11055;50.870;4.316;2024-03-02T14:59:59;12.70;99.90
21787;DHT22;11055;50.870;4.316;2024-03-02T15:02:24;12.60;99.90
21787;DHT22;11055;50.870;4.316;2024-03-02T15:04:50;12.80;99.90
21787;DHT22;11055;50.870;4.316;2024-03-02T15:07:16;12.80;99.90
21787;DHT22;11055;50.870;4.316;2024-03-02T15:09:42;12.80;99.90
21787;DHT22;11055;50.870;4.316;2024-03-02T15:12:07;12.80;99.90
21787;DHT22;11055;50.870;4.316;2024-03-02T15:14:38;12.80;99.90
21787;DHT22;11055;50.870;4.316;2024-03-02T15:17:12;12.70;99.90
21787;DHT22;11055;50.870;4.316;2024-03-02T15:19:38;12.50;99.90
21787;DHT22;11055;50.870;4.316;2024-03-02T15:22:03;12.60;99.90
21787;DHT22;11055;50.870;4.316;2024-03-02T15:24:29;12.60;99.90
21787;DHT22;11055;50.870;4.316;2024-03-02T15:26:55;12.50;99.90
21787;DHT22;11055;50.870;4.316;2024-03-02T15:29:20;12.40;99.90
21787;DHT22;11055;50.870;4.316;2024-03-02T15:31:50;12.40;99.90
21787;DHT22;11055;50.870;4.316;2024-03-02T15:34:16;12.30;99.90
21787;DHT22;11055;50.870;4.316;2024-03-02T15:36:43;12.30;99.90
21787;DHT22;11055;50.870;4.316;2024-03-02T15:39:09;12.40;99.90
21787;DHT22;11055;50.870;4.316;2024-03-02T15:41:34;12.30;99.90